createdAt,value
2023-04-03T00:01:16.405Z,62.73
2023-04-03T00:04:39.756Z,63.03
2023-04-03T00:08:02.877Z,62.78
2023-04-03T00:11:24.815Z,63.09
2023-04-03T00:14:46.704Z,63.71
2023-04-03T00:18:09.115Z,63.70
2023-04-03T00:21:32.626Z,64.12
2023-04-03T00:24:54.521Z,64.72
2023-04-03T00:28:16.430Z,64.36
2023-04-03T00:31:38.377Z,64.86
2023-04-03T00:35:00.383Z,64.81
2023-04-03T00:38:23.175Z,65.19
2023-04-03T00:41:44.670Z,65.79
2023-04-03T00:45:31.960Z,67.47
2023-04-03T00:48:53.970Z,66.85
2023-04-03T00:52:19.520Z,67.34
2023-04-03T00:55:44.165Z,67.58
2023-04-03T00:59:08.247Z,68.06
2023-04-03T01:02:30.108Z,68.49
2023-04-03T01:05:52.635Z,69.96
2023-04-03T01:09:14.319Z,70.10
2023-04-03T01:12:39.112Z,69.67
2023-04-03T01:16:04.371Z,69.66
2023-04-03T01:19:27.078Z,71.13
2023-04-03T01:22:58.235Z,70.84
2023-04-03T01:26:20.983Z,71.41
2023-04-03T01:29:45.496Z,71.92
2023-04-03T01:33:08.519Z,71.43
2023-04-03T01:36:31.867Z,71.85
2023-04-03T01:39:53.867Z,73.01
2023-04-03T01:43:15.445Z,73.03
2023-04-03T01:46:38.564Z,73.44
2023-04-03T01:50:01.596Z,74.05
2023-04-03T01:53:26.359Z,73.09
2023-04-03T01:56:48.149Z,73.89
2023-04-03T02:00:11.449Z,72.72
2023-04-03T02:03:36.625Z,72.88
2023-04-03T02:06:59.947Z,73.49
2023-04-03T02:10:21.592Z,74.12
2023-04-03T02:13:42.945Z,73.48
2023-04-03T02:17:09.360Z,73.27
2023-04-03T02:20:31.327Z,73.29
2023-04-03T02:23:54.570Z,74.29
2023-04-03T02:27:16.931Z,74.00
2023-04-03T02:30:39.006Z,74.01
2023-04-03T02:34:00.520Z,74.27
2023-04-03T02:37:22.301Z,75.24
2023-04-03T02:40:46.434Z,75.60
2023-04-03T02:44:09.304Z,74.43
2023-04-03T02:47:30.885Z,74.57
2023-04-03T02:50:53.218Z,75.57
2023-04-03T02:54:15.557Z,75.06
2023-04-03T02:57:43.291Z,75.19
2023-04-03T03:01:05.956Z,75.34
2023-04-03T03:04:27.853Z,75.32
2023-04-03T03:07:49.815Z,75.78
2023-04-03T03:11:11.981Z,75.99
2023-04-03T03:14:35.109Z,75.78
2023-04-03T03:17:57.400Z,76.30
2023-04-03T03:21:19.195Z,76.64
2023-04-03T03:24:41.144Z,76.03
2023-04-03T03:28:04.446Z,76.27
2023-04-03T03:31:27.641Z,76.28
2023-04-03T03:34:49.651Z,75.60
2023-04-03T03:38:11.763Z,76.61
2023-04-03T03:41:33.930Z,75.81
2023-04-03T03:44:55.846Z,76.31
2023-04-03T03:48:18.955Z,76.61
2023-04-03T03:51:41.515Z,76.46
2023-04-03T03:55:03.628Z,76.83
2023-04-03T03:58:25.954Z,76.24
2023-04-03T04:01:47.965Z,76.17
2023-04-03T04:05:11.422Z,76.63
2023-04-03T04:08:33.250Z,76.64
2023-04-03T04:11:55.263Z,77.28
2023-04-03T04:15:17.752Z,76.94
2023-04-03T04:18:39.254Z,77.33
2023-04-03T04:22:02.441Z,76.83
2023-04-03T04:25:26.488Z,77.44
2023-04-03T04:28:48.780Z,77.13
2023-04-03T04:32:12.069Z,77.96
2023-04-03T04:35:33.919Z,77.84
2023-04-03T04:38:58.019Z,77.88
2023-04-03T04:42:21.106Z,77.95
2023-04-03T04:45:44.512Z,78.20
2023-04-03T04:49:06.599Z,77.88
2023-04-03T04:52:28.901Z,78.15
2023-04-03T04:55:52.674Z,78.12
2023-04-03T04:59:14.286Z,78.83
2023-04-03T05:02:36.001Z,78.63
2023-04-03T05:05:58.500Z,78.68
2023-04-03T05:09:21.010Z,78.56
2023-04-03T05:12:45.042Z,78.48
2023-04-03T05:16:07.389Z,78.64
2023-04-03T05:19:29.828Z,78.37
2023-04-03T05:22:53.103Z,78.51
2023-04-03T05:26:15.831Z,78.51
2023-04-03T05:29:39.964Z,78.43
2023-04-03T05:33:02.122Z,78.23
2023-04-03T05:36:32.279Z,78.73
2023-04-03T05:39:59.045Z,77.89
2023-04-03T05:43:20.750Z,78.53
2023-04-03T05:46:44.454Z,78.36
2023-04-03T05:50:07.926Z,78.80
2023-04-03T05:53:31.514Z,78.17
2023-04-03T05:56:57.929Z,79.27
2023-04-03T06:00:22.214Z,79.04
2023-04-03T06:03:53.822Z,78.68
2023-04-03T06:07:18.312Z,78.49
2023-04-03T06:10:40.404Z,78.64
2023-04-03T06:14:02.558Z,77.99
2023-04-03T06:17:24.793Z,76.83
2023-04-03T06:20:47.977Z,73.33
2023-04-03T06:24:09.798Z,73.84
2023-04-03T06:27:31.640Z,71.04
2023-04-03T06:30:53.317Z,69.17
2023-04-03T06:34:16.401Z,69.79
2023-04-03T06:37:39.874Z,67.46
2023-04-03T06:41:01.443Z,67.05
2023-04-03T06:44:23.051Z,66.61
2023-04-03T06:47:46.194Z,64.33
2023-04-03T06:56:22.189Z,62.50
2023-04-03T06:59:44.074Z,60.13
2023-04-03T07:03:05.606Z,60.63
2023-04-03T07:06:29.132Z,59.55
2023-04-03T07:09:50.790Z,59.89
2023-04-03T07:13:13.830Z,58.91
2023-04-03T07:16:35.908Z,60.79
2023-04-03T07:19:57.738Z,59.22
2023-04-03T07:23:20.635Z,57.31
2023-04-03T07:26:42.127Z,57.86
2023-04-03T07:30:05.945Z,57.48
2023-04-03T07:33:27.898Z,57.51
2023-04-03T07:36:49.603Z,57.81
2023-04-03T07:40:11.741Z,57.04
2023-04-03T07:43:33.760Z,57.34
2023-04-03T07:46:57.192Z,56.50
2023-04-03T07:50:19.494Z,56.00
2023-04-03T07:53:41.306Z,55.76
2023-04-03T07:57:03.079Z,55.22
2023-04-03T08:00:25.331Z,56.06
2023-04-03T08:03:48.486Z,55.85
2023-04-03T08:07:10.297Z,55.45
2023-04-03T08:10:32.341Z,56.18
2023-04-03T08:13:54.084Z,55.81
2023-04-03T08:17:15.925Z,54.08
2023-04-03T08:20:40.894Z,54.63
2023-04-03T08:24:02.650Z,55.16
2023-04-03T08:27:24.262Z,52.92
2023-04-03T08:30:47.134Z,54.05
2023-04-03T08:34:09.775Z,52.43
2023-04-03T08:37:33.128Z,51.71
2023-04-03T08:41:04.080Z,52.18
2023-04-03T08:44:28.216Z,51.06
2023-04-03T08:47:56.560Z,50.69
2023-04-03T08:51:22.409Z,49.31
2023-04-03T08:54:51.734Z,50.20
2023-04-03T08:58:17.504Z,50.24
2023-04-03T09:01:41.134Z,49.54
2023-04-03T09:05:05.139Z,48.55
2023-04-03T09:09:31.824Z,48.29
2023-04-03T09:13:02.474Z,47.87
2023-04-03T09:16:34.140Z,47.39
2023-04-03T09:20:00.924Z,47.48
2023-04-03T09:23:28.419Z,48.06
2023-04-03T09:26:55.766Z,47.43
2023-04-03T09:30:20.329Z,46.59
2023-04-03T09:33:42.535Z,46.24
2023-04-03T09:37:07.149Z,47.89
2023-04-03T09:40:36.884Z,47.60
2023-04-03T09:43:58.659Z,46.31
2023-04-03T09:47:26.763Z,47.13
2023-04-03T09:51:02.725Z,46.84
2023-04-03T09:54:34.095Z,46.27
2023-04-03T09:57:56.847Z,47.35
2023-04-03T10:01:33.136Z,47.89
2023-04-03T10:05:08.938Z,46.91
2023-04-03T10:08:35.625Z,46.91
2023-04-03T10:12:06.518Z,46.86
2023-04-03T10:15:32.212Z,47.46
2023-04-03T10:19:04.834Z,47.71
2023-04-03T10:22:40.631Z,48.17
2023-04-03T10:26:19.113Z,47.26
2023-04-03T10:29:44.804Z,48.20
2023-04-03T10:33:26.451Z,48.53
2023-04-03T10:36:58.357Z,49.15
2023-04-03T10:40:33.901Z,48.36
2023-04-03T10:44:07.013Z,47.54
2023-04-03T10:47:38.864Z,47.26
2023-04-03T10:51:09.153Z,48.14
2023-04-03T10:54:37.430Z,47.71
2023-04-03T10:58:03.154Z,47.77
2023-04-03T11:01:29.702Z,47.09
2023-04-03T11:04:56.893Z,46.08
2023-04-03T11:08:29.093Z,46.60
2023-04-03T11:11:55.208Z,46.96
2023-04-03T11:15:20.854Z,47.19
2023-04-03T11:18:48.544Z,48.94
2023-04-03T11:22:18.179Z,49.37
2023-04-03T11:25:44.274Z,49.07
2023-04-03T11:29:15.870Z,49.83
2023-04-03T11:33:07.319Z,49.22
2023-04-03T11:36:34.618Z,49.25
2023-04-03T11:40:03.590Z,48.84
2023-04-03T11:43:28.287Z,47.78
2023-04-03T11:47:11.407Z,47.34
2023-04-03T11:50:41.079Z,46.81
2023-04-03T11:54:45.442Z,48.24
2023-04-03T11:58:15.851Z,48.66
2023-04-03T12:01:48.276Z,49.19
2023-04-03T12:05:29.343Z,47.66
2023-04-03T12:08:54.895Z,46.96
2023-04-03T12:12:41.405Z,47.31
2023-04-03T12:16:04.602Z,47.57
2023-04-03T12:19:42.577Z,47.59
2023-04-03T12:23:28.353Z,47.95
2023-04-03T12:26:53.705Z,48.52
2023-04-03T12:30:23.330Z,49.50
2023-04-03T12:34:03.714Z,50.35
2023-04-03T12:37:42.125Z,49.36
2023-04-03T12:41:19.594Z,50.14
2023-04-03T12:44:52.950Z,50.81
2023-04-03T12:48:18.492Z,51.73
2023-04-03T12:51:43.369Z,52.24
2023-04-03T12:55:11.167Z,52.67
2023-04-03T12:58:34.919Z,51.89
2023-04-03T13:01:57.818Z,52.23
2023-04-03T13:05:22.155Z,51.54
2023-04-03T13:08:52.078Z,51.94
2023-04-03T13:12:16.253Z,51.36
2023-04-03T13:15:46.156Z,52.73
2023-04-03T13:19:07.735Z,52.18
2023-04-03T13:22:34.994Z,51.58
2023-04-03T13:25:59.201Z,52.23
2023-04-03T13:29:30.921Z,51.89
2023-04-03T13:32:55.806Z,51.65
2023-04-03T13:36:21.457Z,51.11
2023-04-03T13:39:43.341Z,51.50
2023-04-03T13:43:08.474Z,52.03
2023-04-03T13:46:30.382Z,52.45
2023-04-03T13:50:06.783Z,52.91
2023-04-03T13:53:29.987Z,52.66
2023-04-03T13:56:56.177Z,52.71
2023-04-03T14:00:23.944Z,52.49
2023-04-03T14:03:49.769Z,52.19
2023-04-03T14:07:13.705Z,52.14
2023-04-03T14:10:35.725Z,51.82
2023-04-03T14:13:59.926Z,51.41
2023-04-03T14:17:24.541Z,51.25
2023-04-03T14:20:47.385Z,51.49
2023-04-03T14:24:10.187Z,52.34
2023-04-03T14:27:36.146Z,52.57
2023-04-03T14:30:58.050Z,52.06
2023-04-03T14:34:20.190Z,52.62
2023-04-03T14:37:42.445Z,52.74
2023-04-03T14:41:15.636Z,53.06
2023-04-03T14:44:38.767Z,51.47
2023-04-03T14:48:01.248Z,51.78
2023-04-03T14:51:23.330Z,50.58
2023-04-03T14:54:44.810Z,49.60
2023-04-03T14:58:07.644Z,49.57
2023-04-03T15:01:30.539Z,49.85
2023-04-03T15:04:53.503Z,50.13
2023-04-03T15:08:23.966Z,49.69
2023-04-03T15:11:45.814Z,49.93
2023-04-03T15:15:10.261Z,50.41
2023-04-03T15:18:37.919Z,50.55
2023-04-03T15:21:59.847Z,50.76
2023-04-03T15:25:21.338Z,51.27
2023-04-03T15:28:45.416Z,51.57
2023-04-03T15:32:10.087Z,50.01
2023-04-03T15:35:31.656Z,49.16
2023-04-03T15:38:53.443Z,49.75
2023-04-03T15:42:15.032Z,50.06
2023-04-03T15:45:38.988Z,50.27
2023-04-03T15:49:03.598Z,49.77
2023-04-03T15:52:28.155Z,50.29
2023-04-03T15:55:49.782Z,50.78
2023-04-03T15:59:11.683Z,50.79
2023-04-03T16:02:33.179Z,50.94
2023-04-03T16:05:57.123Z,51.62
2023-04-03T16:09:19.251Z,52.15
2023-04-03T16:12:41.506Z,51.98
2023-04-03T16:16:03.237Z,52.44
2023-04-03T16:19:26.408Z,53.50
2023-04-03T16:22:49.847Z,52.86
2023-04-03T16:26:11.560Z,53.02
2023-04-03T16:29:33.274Z,53.57
2023-04-03T16:32:54.650Z,53.42
2023-04-03T16:36:16.693Z,52.55
2023-04-03T16:39:40.407Z,52.67
2023-04-03T16:43:02.120Z,52.75
2023-04-03T16:46:23.728Z,52.67
2023-04-03T16:49:45.475Z,52.21
2023-04-03T16:53:10.256Z,52.64
2023-04-03T16:56:34.778Z,53.19
2023-04-03T16:59:57.398Z,52.83
2023-04-03T17:03:19.182Z,52.91
2023-04-03T17:06:41.843Z,52.54
2023-04-03T17:10:03.538Z,53.03
2023-04-03T17:13:32.173Z,53.21
2023-04-03T17:16:54.256Z,52.87
2023-04-03T17:20:16.216Z,53.60
2023-04-03T17:23:40.248Z,53.72
2023-04-03T17:27:02.201Z,54.11
2023-04-03T17:30:25.466Z,54.61
2023-04-03T17:33:46.992Z,54.87
2023-04-03T17:37:09.233Z,54.91
2023-04-03T17:40:31.001Z,55.30
2023-04-03T17:43:56.419Z,55.39
2023-04-03T17:47:19.751Z,55.37
2023-04-03T17:50:41.556Z,56.09
2023-04-03T17:54:03.568Z,56.46
2023-04-03T17:57:25.383Z,56.90
2023-04-03T18:00:46.786Z,57.56
2023-04-03T18:04:09.586Z,57.53
2023-04-03T18:07:31.181Z,58.47
2023-04-03T18:10:53.213Z,58.75
2023-04-03T18:14:16.429Z,59.30
2023-04-03T18:17:37.890Z,58.65
2023-04-03T18:21:01.109Z,57.96
2023-04-03T18:24:23.647Z,58.05
2023-04-03T18:27:47.535Z,57.84
2023-04-03T18:31:10.971Z,57.70
2023-04-03T18:34:32.749Z,57.67
2023-04-03T18:37:55.723Z,57.98
2023-04-03T18:41:17.663Z,57.71
2023-04-03T18:44:42.471Z,57.86
2023-04-03T18:48:04.359Z,57.38
2023-04-03T18:51:27.507Z,57.64
2023-04-03T18:54:50.650Z,57.34
2023-04-03T18:58:12.423Z,57.92
2023-04-03T19:01:35.688Z,57.56
2023-04-03T19:04:57.893Z,56.89
2023-04-03T19:08:19.944Z,57.71
2023-04-03T19:11:43.001Z,57.71
2023-04-03T19:15:05.599Z,57.45
2023-04-03T19:18:28.420Z,57.93
2023-04-03T19:21:50.127Z,58.70
2023-04-03T19:25:12.809Z,58.62
2023-04-03T19:28:36.565Z,58.25
2023-04-03T19:31:58.293Z,58.75
2023-04-03T19:35:20.494Z,58.14
2023-04-03T19:38:42.926Z,58.11
2023-04-03T19:42:05.658Z,58.47
2023-04-03T19:45:30.420Z,58.05
2023-04-03T19:48:52.443Z,58.52
2023-04-03T19:52:14.131Z,58.06
2023-04-03T19:55:36.620Z,57.91
2023-04-03T19:58:59.023Z,57.14
2023-04-03T20:02:22.432Z,57.65
2023-04-03T20:05:44.430Z,57.83
2023-04-03T20:09:06.462Z,57.42
2023-04-03T20:12:29.565Z,57.93
2023-04-03T20:15:51.711Z,57.04
2023-04-03T20:19:15.608Z,57.04
2023-04-03T20:22:38.478Z,56.92
2023-04-03T20:26:10.317Z,57.16
2023-04-03T20:29:37.361Z,57.19
2023-04-03T20:32:59.792Z,56.69
2023-04-03T20:36:23.777Z,56.92
2023-04-03T20:39:47.008Z,57.20
2023-04-03T20:43:09.120Z,57.49
2023-04-03T20:46:49.137Z,57.57
2023-04-03T20:50:13.750Z,57.32
2023-04-03T20:53:37.533Z,58.22
2023-04-03T20:56:59.630Z,58.41
2023-04-03T21:00:22.904Z,58.55
2023-04-03T21:03:46.376Z,58.54
2023-04-03T21:07:46.427Z,58.81
2023-04-03T21:11:47.299Z,59.33
2023-04-03T21:15:46.774Z,59.43
2023-04-03T21:19:15.753Z,59.92
2023-04-03T21:22:43.213Z,60.07
2023-04-03T21:26:04.858Z,60.83
2023-04-03T21:29:26.275Z,61.46
2023-04-03T21:32:48.539Z,62.27
2023-04-03T21:36:11.986Z,62.69
2023-04-03T21:39:34.791Z,63.41
2023-04-03T21:42:56.343Z,63.64
2023-04-03T21:46:20.291Z,63.84
2023-04-03T21:49:41.691Z,64.03
2023-04-03T21:53:04.768Z,64.37
2023-04-03T21:56:26.611Z,64.41
2023-04-03T21:59:48.014Z,64.68
2023-04-03T22:03:10.671Z,64.93
2023-04-03T22:06:32.566Z,65.31
2023-04-03T22:09:55.474Z,66.35
2023-04-03T22:13:16.714Z,66.18
2023-04-03T22:16:39.825Z,67.01
2023-04-03T22:20:01.488Z,67.33
2023-04-03T22:23:23.791Z,67.54
2023-04-03T22:26:47.654Z,67.69
2023-04-03T22:30:10.125Z,67.73
2023-04-03T22:33:31.755Z,67.29
2023-04-03T22:36:53.620Z,67.58
2023-04-03T22:40:15.707Z,66.83
2023-04-03T22:43:39.193Z,67.60
2023-04-03T22:47:01.342Z,68.21
2023-04-03T22:50:23.004Z,67.49
2023-04-03T22:53:44.700Z,68.74
2023-04-03T22:57:06.546Z,68.67
2023-04-03T23:00:29.754Z,69.30
2023-04-03T23:03:51.527Z,69.30
2023-04-03T23:07:13.285Z,69.98
2023-04-03T23:10:34.714Z,69.29
2023-04-03T23:13:56.515Z,70.10
2023-04-03T23:17:19.780Z,70.57
2023-04-03T23:20:42.133Z,69.92
2023-04-03T23:24:03.978Z,70.46
2023-04-03T23:27:25.924Z,71.53
2023-04-03T23:30:48.191Z,71.95
2023-04-03T23:34:11.491Z,71.76
2023-04-03T23:37:33.155Z,72.28
2023-04-03T23:40:54.844Z,71.50
2023-04-03T23:44:17.118Z,71.69
2023-04-03T23:47:38.923Z,71.52
2023-04-03T23:51:01.568Z,72.37
2023-04-03T23:54:23.196Z,71.66
2023-04-03T23:57:45.162Z,72.13
